Time;durP1;ratioP1;P1;durP2;ratioP2;P2;SDS_P1;SDS_P2;PMS_P1;PMS_P2;Temp;Humidity;BMP_temperature;BMP_pressure;BME280_temperature;BME280_humidity;BME280_pressure;Samples;Min_cycle;Max_cycle;Signal;HPM_P1;HPM_P2
2022/08/22 00:00:24;;;;;;;5.30;2.88;;;;;;;16.21;65.93;100447.13;10229659;28;20047;-76
2022/08/22 00:05:35;;;;;;;7.15;3.28;;;;;;;16.02;66.00;100449.06;10257082;29;20055;-75
2022/08/22 00:10:54;;;;;;;6.68;3.65;;;;;;;15.53;66.95;100448.66;10262483;29;20062;-76
2022/08/22 00:16:07;;;;;;;6.47;3.38;;;;;;;15.68;67.23;100448.94;10215680;29;20067;-77
2022/08/22 00:21:18;;;;;;;8.25;4.82;;;;;;;15.64;67.30;100453.00;10206786;29;20055;-77
2022/08/22 00:26:34;;;;;;;12.75;3.80;;;;;;;16.00;66.74;100456.50;10219627;29;20051;-76
2022/08/22 00:31:42;;;;;;;7.13;3.80;;;;;;;15.92;67.25;100448.31;10239933;29;20043;-77
2022/08/22 00:36:52;;;;;;;6.97;3.17;;;;;;;15.97;67.14;100450.56;10232096;28;20053;-76
2022/08/22 00:42:27;;;;;;;5.88;3.63;;;;;;;16.05;67.05;100446.03;10236140;29;20088;-76
2022/08/22 00:48:02;;;;;;;7.47;3.78;;;;;;;16.17;66.29;100456.59;10208272;29;20421;-77
2022/08/22 00:53:31;;;;;;;8.40;4.00;;;;;;;16.07;67.79;100449.44;10212695;29;20079;-76
2022/08/22 00:59:07;;;;;;;6.93;3.60;;;;;;;16.10;67.72;100457.25;10219355;29;20051;-77
2022/08/22 01:04:58;;;;;;;10.25;3.33;;;;;;;16.11;67.40;100442.69;10232032;29;20046;-76
2022/08/22 01:10:18;;;;;;;4.78;3.13;;;;;;;16.05;67.00;100448.75;10234641;28;20051;-76
2022/08/22 01:15:26;;;;;;;14.15;4.68;;;;;;;15.87;67.89;100456.03;10231792;29;20075;-76
2022/08/22 01:21:04;;;;;;;12.82;4.60;;;;;;;15.13;72.53;100460.72;10236023;29;20365;-76
2022/08/22 01:26:36;;;;;;;10.75;4.70;;;;;;;15.02;73.12;100458.22;10236805;28;20087;-77
2022/08/22 01:32:18;;;;;;;7.43;4.10;;;;;;;15.18;72.38;100461.13;10235547;29;20698;-75
2022/08/22 01:38:09;;;;;;;11.93;5.22;;;;;;;14.69;74.67;100468.66;10237245;29;20053;-76
2022/08/22 01:43:26;;;;;;;10.25;5.30;;;;;;;15.07;73.74;100445.09;10126670;29;20391;-76
2022/08/22 01:48:54;;;;;;;9.80;5.20;;;;;;;15.49;72.02;100449.97;10198918;23;20134;-77
2022/08/22 01:54:02;;;;;;;6.60;4.00;;;;;;;15.62;70.77;100445.00;10198040;29;20468;-77
2022/08/22 01:59:10;;;;;;;9.93;4.25;;;;;;;15.67;69.99;100433.72;10227812;29;20102;-77
2022/08/22 02:04:20;;;;;;;6.78;3.70;;;;;;;15.71;70.01;100443.22;10219380;29;20394;-77
2022/08/22 02:09:35;;;;;;;9.63;4.05;;;;;;;15.72;69.78;100442.22;10231244;29;20044;-77
2022/08/22 02:14:47;;;;;;;7.18;4.60;;;;;;;15.71;69.93;100448.63;10238804;29;20043;-78
2022/08/22 02:19:57;;;;;;;11.38;4.63;;;;;;;15.53;70.46;100450.53;10220709;29;20445;-77
2022/08/22 02:25:08;;;;;;;8.07;5.25;;;;;;;15.37;71.75;100449.34;10218550;29;20047;-77
2022/08/22 02:30:15;;;;;;;8.90;5.32;;;;;;;15.18;71.97;100446.75;10236530;28;20091;-76
2022/08/22 02:35:27;;;;;;;9.10;4.70;;;;;;;14.92;73.32;100449.31;10231267;29;20075;-77
2022/08/22 02:40:35;;;;;;;9.98;4.88;;;;;;;14.63;74.23;100454.91;10234294;29;20047;-78
2022/08/22 02:45:47;;;;;;;10.20;5.40;;;;;;;14.68;74.46;100450.75;10216356;29;20054;-78
2022/08/22 02:50:52;;;;;;;;;;;;;;;14.89;73.23;100441.50;10238451;29;20051;-78
2022/08/22 02:56:02;;;;;;;11.55;4.57;;;;;;;15.05;72.08;100433.59;10216831;29;20395;-78
2022/08/22 03:01:33;;;;;;;9.70;5.05;;;;;;;15.00;71.87;100430.47;10235350;29;20047;-78
2022/08/22 03:06:41;;;;;;;11.13;4.45;;;;;;;14.99;71.56;100426.94;10228695;29;20548;-78
2022/08/22 03:11:49;;;;;;;8.90;4.65;;;;;;;14.97;71.05;100441.59;10212547;29;20116;-78
2022/08/22 03:17:01;;;;;;;12.05;5.57;;;;;;;14.78;72.74;100435.31;10229520;29;20060;-78
2022/08/22 03:22:19;;;;;;;13.27;6.47;;;;;;;14.45;74.52;100438.59;10222156;29;20052;-78
2022/08/22 03:27:27;;;;;;;13.95;5.95;;;;;;;14.43;74.56;100441.47;10231021;29;20062;-78
2022/08/22 03:32:53;;;;;;;7.38;5.18;;;;;;;14.62;73.47;100443.22;10228441;28;20062;-78
2022/08/22 03:38:11;;;;;;;10.15;5.30;;;;;;;14.64;72.69;100437.66;10237841;29;20134;-78
2022/08/22 03:43:35;;;;;;;9.68;5.25;;;;;;;14.61;72.43;100436.09;10234010;29;20047;-79
2022/08/22 03:49:05;;;;;;;10.38;6.00;;;;;;;14.65;72.53;100421.31;10197798;29;20129;-79
2022/08/22 03:54:36;;;;;;;10.45;5.30;;;;;;;14.59;72.21;100430.03;10236242;29;20560;-78
2022/08/22 04:00:08;;;;;;;8.02;4.78;;;;;;;14.59;72.40;100438.13;10227732;29;20130;-78
2022/08/22 04:05:39;;;;;;;6.60;4.53;;;;;;;14.50;71.52;100434.44;10241067;29;20051;-78
2022/08/22 04:11:08;;;;;;;8.82;5.80;;;;;;;14.33;71.38;100449.56;10228238;29;20091;-78
2022/08/22 04:16:25;;;;;;;9.90;5.18;;;;;;;14.28;72.20;100443.72;10245362;29;20051;-77
2022/08/22 04:21:49;;;;;;;8.05;4.30;;;;;;;14.39;72.41;100448.16;10218035;29;20055;-78
2022/08/22 04:26:56;;;;;;;8.05;4.93;;;;;;;14.74;72.52;100452.00;10232528;29;20405;-77
2022/08/22 04:32:06;;;;;;;8.43;4.75;;;;;;;14.77;71.07;100457.09;10235981;29;20415;-77
2022/08/22 04:37:22;;;;;;;10.05;4.00;;;;;;;14.79;70.30;100455.94;10205666;29;20046;-78
2022/08/22 04:42:32;;;;;;;6.82;3.63;;;;;;;14.88;70.54;100456.03;10232320;29;20071;-77
2022/08/22 04:47:39;;;;;;;8.23;5.00;;;;;;;14.85;70.26;100453.66;10230307;28;20058;-78
2022/08/22 04:53:02;;;;;;;8.50;4.93;;;;;;;14.80;70.50;100452.22;10216119;29;20058;-78
2022/08/22 04:58:15;;;;;;;11.30;4.95;;;;;;;14.85;70.57;100459.91;10236722;29;20095;-78
2022/08/22 05:03:21;;;;;;;8.38;5.05;;;;;;;14.90;70.67;100454.06;10234294;29;20051;-78
2022/08/22 05:08:31;;;;;;;9.45;6.60;;;;;;;15.11;70.58;100459.19;10229381;29;20042;-78
2022/08/22 05:13:41;;;;;;;9.65;4.88;;;;;;;14.98;70.47;100454.16;10230788;29;20679;-79
2022/08/22 05:18:48;;;;;;;9.05;5.60;;;;;;;15.01;70.46;100460.09;10230728;29;20039;-78
2022/08/22 05:23:58;;;;;;;10.80;5.63;;;;;;;15.12;70.35;100460.91;10225774;29;20099;-78
2022/08/22 05:29:03;;;;;;;6.57;4.90;;;;;;;15.36;69.50;100458.47;10218700;29;20106;-78
2022/08/22 05:34:12;;;;;;;10.77;5.80;;;;;;;15.37;68.53;100464.75;10194132;28;20074;-79
2022/08/22 05:39:21;;;;;;;10.50;6.53;;;;;;;15.31;68.82;100471.59;10194302;28;20130;-78
2022/08/22 05:44:31;;;;;;;8.30;6.20;;;;;;;15.32;69.01;100465.16;10202196;28;20401;-79
2022/08/22 05:49:39;;;;;;;10.02;5.35;;;;;;;15.40;69.00;100467.13;10196812;28;20560;-78
2022/08/22 05:54:52;;;;;;;6.70;5.28;;;;;;;15.63;68.55;100473.81;10196967;28;20782;-78
2022/08/22 06:00:01;;;;;;;10.77;4.72;;;;;;;15.87;68.31;100477.72;10188056;28;20829;-78
2022/08/22 06:05:12;;;;;;;12.02;6.13;;;;;;;16.06;67.38;100482.94;10189624;28;20051;-78
2022/08/22 06:10:23;;;;;;;12.45;8.05;;;;;;;16.00;67.25;100486.28;10196736;28;20060;-79
2022/08/22 06:15:34;;;;;;;8.82;6.53;;;;;;;16.05;67.16;100485.84;10197878;28;20505;-79
2022/08/22 06:20:42;;;;;;;9.55;5.63;;;;;;;16.27;66.50;100484.50;10198125;28;20080;-78
2022/08/22 06:25:49;;;;;;;10.15;7.18;;;;;;;16.55;65.61;100493.31;10215814;28;20055;-78
2022/08/22 06:30:55;;;;;;;10.23;6.70;;;;;;;16.55;64.58;100485.16;10199165;28;20055;-79
2022/08/22 06:41:28;;;;;;;8.50;6.72;;;;;;;17.00;63.90;100495.75;10204536;28;21333;-78
2022/08/22 06:46:36;;;;;;;9.43;6.18;;;;;;;17.27;63.97;100504.66;10203998;28;20504;-78
2022/08/22 06:51:39;;;;;;;9.20;6.55;;;;;;;17.59;62.53;100498.47;10207737;28;20099;-78
2022/08/22 06:56:48;;;;;;;12.43;6.45;;;;;;;17.92;62.13;100499.34;10202371;28;21336;-79
2022/08/22 07:01:57;;;;;;;9.70;7.10;;;;;;;18.20;60.61;100499.00;10204563;28;20044;-79
2022/08/22 07:07:02;;;;;;;7.65;5.75;;;;;;;18.63;60.20;100499.63;10191233;28;20130;-78
2022/08/22 07:12:18;;;;;;;15.52;6.72;;;;;;;18.88;58.40;100502.31;10197443;28;20054;-78
2022/08/22 07:17:24;;;;;;;10.20;5.82;;;;;;;18.95;58.25;100509.59;10204728;28;20145;-78
2022/08/22 07:22:30;;;;;;;11.55;6.03;;;;;;;19.17;57.67;100513.41;10203038;28;20055;-79
2022/08/22 07:27:52;;;;;;;11.63;6.30;;;;;;;19.60;56.62;100508.41;10206541;28;20059;-78
2022/08/22 07:33:00;;;;;;;9.53;5.50;;;;;;;20.03;55.48;100507.94;10197954;28;20083;-78
2022/08/22 07:38:31;;;;;;;10.00;5.28;;;;;;;20.23;54.02;100500.06;10207699;28;21358;-78
2022/08/22 07:43:42;;;;;;;8.20;5.18;;;;;;;20.56;53.53;100509.66;10194645;28;20528;-78
2022/08/22 07:48:49;;;;;;;9.57;6.00;;;;;;;20.86;52.96;100506.94;10188890;28;20063;-79
2022/08/22 07:54:13;;;;;;;11.05;5.50;;;;;;;21.31;52.65;100510.50;10195661;28;20048;-77
2022/08/22 07:59:20;;;;;;;7.72;5.15;;;;;;;21.47;49.49;100509.41;10195521;28;20058;-78
2022/08/22 08:04:29;;;;;;;11.77;5.60;;;;;;;21.55;50.26;100516.63;10199167;28;20063;-78
2022/08/22 08:09:35;;;;;;;8.38;4.78;;;;;;;22.16;50.11;100503.41;10179809;28;20059;-79
2022/08/22 08:14:42;;;;;;;9.27;4.63;;;;;;;22.54;47.31;100505.78;10198217;28;20098;-77
2022/08/22 08:19:47;;;;;;;7.68;3.80;;;;;;;22.98;47.43;100497.22;10212354;28;20083;-79
2022/08/22 08:24:53;;;;;;;7.40;4.30;;;;;;;23.53;46.57;100504.59;10237229;28;20051;-77
2022/08/22 08:30:01;;;;;;;7.20;3.40;;;;;;;23.79;44.92;100493.72;10237475;28;20058;-77
2022/08/22 08:35:07;;;;;;;9.98;4.43;;;;;;;23.82;43.46;100487.81;10216362;28;20075;-78
2022/08/22 08:40:26;;;;;;;6.88;3.85;;;;;;;23.86;43.27;100490.97;10190139;28;20172;-77
2022/08/22 08:45:53;;;;;;;5.88;3.25;;;;;;;24.66;41.74;100485.50;10200019;28;20055;-79
2022/08/22 08:51:42;;;;;;;10.63;4.85;;;;;;;25.48;40.28;100481.16;10237777;28;20059;-79
2022/08/22 08:56:55;;;;;;;8.55;3.83;;;;;;;25.75;40.01;100470.84;10194747;29;20146;-79
2022/08/22 09:02:36;;;;;;;8.98;4.00;;;;;;;26.10;40.60;100469.53;10197120;28;20130;-80
2022/08/22 09:08:13;;;;;;;7.15;3.88;;;;;;;26.37;39.36;100465.47;10181678;28;20047;-80
2022/08/22 09:13:50;;;;;;;9.10;3.42;;;;;;;26.46;38.70;100461.34;10214053;28;20692;-78
2022/08/22 09:19:27;;;;;;;7.13;3.05;;;;;;;26.49;37.67;100460.06;10176719;28;20686;-80
2022/08/22 09:24:52;;;;;;;5.35;2.70;;;;;;;26.51;36.73;100453.25;10199560;28;20058;-80
2022/08/22 09:30:03;;;;;;;2.97;1.88;;;;;;;26.79;35.27;100454.63;10193707;28;20043;-79
2022/08/22 09:35:14;;;;;;;5.63;2.45;;;;;;;26.61;34.70;100444.47;10214484;28;20071;-79
2022/08/22 09:40:27;;;;;;;3.37;1.40;;;;;;;27.04;33.32;100442.69;10195752;28;20662;-80
2022/08/22 09:45:52;;;;;;;3.50;1.65;;;;;;;27.33;32.31;100436.34;10202014;28;20298;-79
2022/08/22 09:51:05;;;;;;;7.13;1.40;;;;;;;27.43;32.76;100435.84;10193243;28;20146;-79
2022/08/22 09:56:38;;;;;;;4.15;1.95;;;;;;;28.12;31.30;100421.59;10202868;28;20051;-80
2022/08/22 10:01:51;;;;;;;5.20;1.95;;;;;;;28.17;30.73;100407.91;10201746;28;20079;-79
2022/08/22 10:06:59;;;;;;;;;;;;;;;28.48;31.29;100414.94;10204886;28;21323;-79
2022/08/22 10:12:08;;;;;;;3.83;1.60;;;;;;;28.05;30.93;100402.38;10197864;28;20524;-80
2022/08/22 10:17:19;;;;;;;4.07;2.20;;;;;;;28.43;31.19;100399.09;10215070;28;20055;-78
2022/08/22 10:22:34;;;;;;;3.38;1.80;;;;;;;29.42;30.56;100395.31;10202446;28;20057;-79
2022/08/22 10:27:50;;;;;;;4.50;1.83;;;;;;;29.52;29.10;100391.91;10199591;28;20066;-78
2022/08/22 10:33:02;;;;;;;5.40;1.30;;;;;;;29.69;28.75;100384.47;10191753;28;20102;-79
2022/08/22 10:38:13;;;;;;;3.92;1.83;;;;;;;29.46;29.49;100392.91;10197580;28;20539;-79
2022/08/22 10:43:21;;;;;;;2.90;1.70;;;;;;;28.33;31.68;100387.84;10195587;28;20651;-79
2022/08/22 10:48:37;;;;;;;4.18;1.50;;;;;;;29.48;29.52;100388.78;10195479;28;20136;-79
2022/08/22 10:53:53;;;;;;;4.18;1.40;;;;;;;30.29;29.04;100377.38;10191817;28;20133;-79
2022/08/22 10:59:08;;;;;;;3.13;1.40;;;;;;;30.06;28.50;100377.53;10207948;28;20107;-78
2022/08/22 11:04:31;;;;;;;3.08;1.55;;;;;;;30.91;28.23;100376.25;10198245;28;20051;-80
2022/08/22 11:09:40;;;;;;;4.95;1.52;;;;;;;33.02;26.15;100363.63;10198189;28;20537;-79
2022/08/22 11:15:03;;;;;;;2.83;1.73;;;;;;;31.65;26.53;100367.28;10205321;28;20110;-80
2022/08/22 11:20:18;;;;;;;2.30;1.40;;;;;;;30.72;28.69;100367.44;10201392;28;20508;-80
2022/08/22 11:25:31;;;;;;;2.15;1.40;;;;;;;30.53;29.03;100354.97;10204382;28;20063;-80
2022/08/22 11:30:52;;;;;;;4.07;1.40;;;;;;;31.82;27.72;100352.44;10233974;28;20082;-79
2022/08/22 11:36:05;;;;;;;4.55;1.85;;;;;;;31.86;27.44;100350.78;10221137;28;20058;-80
2022/08/22 11:41:12;;;;;;;2.75;1.50;;;;;;;31.88;27.42;100348.59;10194603;28;20778;-80
2022/08/22 11:46:29;;;;;;;3.08;1.85;;;;;;;33.12;26.42;100348.88;10210773;28;20094;-80
2022/08/22 11:51:56;;;;;;;5.28;2.10;;;;;;;33.50;25.61;100344.75;10198752;29;20079;-79
2022/08/22 11:57:06;;;;;;;6.10;1.90;;;;;;;34.14;25.50;100343.31;10195635;28;20182;-80
2022/08/22 12:02:17;;;;;;;2.35;1.70;;;;;;;34.06;25.41;100338.28;10217484;28;20121;-81
2022/08/22 12:07:28;;;;;;;4.40;1.73;;;;;;;34.20;24.96;100339.41;10203089;28;20058;-81
2022/08/22 12:12:40;;;;;;;5.13;2.40;;;;;;;33.98;24.62;100334.16;10208944;28;20105;-81
2022/08/22 12:18:26;;;;;;;3.50;1.70;;;;;;;31.98;27.25;100324.50;10212138;28;21201;-79
2022/08/22 12:24:09;;;;;;;2.72;1.70;;;;;;;32.35;26.90;100312.47;10205453;28;20071;-79
2022/08/22 12:29:31;;;;;;;2.33;1.52;;;;;;;32.32;27.45;100310.25;10164397;28;20061;-81
2022/08/22 12:34:46;;;;;;;2.70;1.60;;;;;;;31.97;28.09;100303.38;10195124;28;21300;-80
2022/08/22 12:40:08;;;;;;;3.33;1.80;;;;;;;32.40;27.40;100301.38;10201112;28;20055;-80
2022/08/22 12:45:26;;;;;;;3.47;1.52;;;;;;;34.43;24.92;100286.91;10196008;29;20138;-80
2022/08/22 12:50:41;;;;;;;3.20;1.83;;;;;;;34.08;25.91;100280.31;10192233;28;20208;-80
2022/08/22 12:55:58;;;;;;;3.17;1.60;;;;;;;31.53;26.99;100266.69;10201422;28;20079;-81
2022/08/22 13:01:05;;;;;;;3.50;1.65;;;;;;;32.91;26.25;100277.63;10205724;28;20047;-79
2022/08/22 13:06:46;;;;;;;1.83;1.67;;;;;;;34.42;24.51;100262.91;10205566;28;20103;-81
2022/08/22 13:11:56;;;;;;;3.17;1.63;;;;;;;33.44;24.96;100267.94;10213518;28;21983;-80
2022/08/22 13:17:05;;;;;;;2.25;1.40;;;;;;;32.89;25.45;100259.28;10210110;28;20062;-80
2022/08/22 13:22:30;;;;;;;6.55;1.77;;;;;;;33.62;24.71;100254.56;10201627;28;20083;-80
2022/08/22 13:27:36;;;;;;;4.65;1.70;;;;;;;32.39;26.16;100254.41;10211747;28;20047;-80
2022/08/22 13:32:56;;;;;;;3.38;1.63;;;;;;;33.42;25.58;100245.09;10200928;28;20138;-79
2022/08/22 13:38:07;;;;;;;2.95;1.67;;;;;;;34.98;23.75;100233.88;10209171;28;20152;-81
2022/08/22 13:43:21;;;;;;;4.35;1.60;;;;;;;36.75;22.62;100223.75;10218431;28;20051;-80
2022/08/22 13:48:26;;;;;;;1.67;1.48;;;;;;;36.64;22.38;100219.44;10183038;28;20047;-79
2022/08/22 13:53:38;;;;;;;3.80;1.42;;;;;;;35.54;21.86;100227.78;10193892;28;20138;-80
2022/08/22 13:58:49;;;;;;;4.13;1.65;;;;;;;35.04;22.35;100216.81;10197450;28;20051;-79
2022/08/22 14:03:58;;;;;;;1.95;1.40;;;;;;;36.44;22.24;100222.56;10167277;28;20093;-79
2022/08/22 14:09:19;;;;;;;2.67;1.60;;;;;;;36.37;21.87;100215.38;10199025;28;20058;-79
2022/08/22 14:14:37;;;;;;;2.25;1.50;;;;;;;35.07;22.81;100213.44;10189430;28;20048;-79
2022/08/22 14:19:44;;;;;;;2.95;1.40;;;;;;;33.15;24.17;100222.31;10191938;28;20058;-79
2022/08/22 14:25:06;;;;;;;3.77;1.40;;;;;;;32.62;24.41;100219.72;10196149;28;20055;-81
2022/08/22 14:30:15;;;;;;;1.95;1.25;;;;;;;32.40;25.08;100223.56;10193075;28;20062;-80
2022/08/22 14:35:23;;;;;;;1.63;1.25;;;;;;;31.84;25.31;100214.97;10190813;28;20051;-81
2022/08/22 14:40:41;;;;;;;4.43;1.58;;;;;;;31.45;25.04;100217.22;10206585;28;21185;-80
2022/08/22 14:45:54;;;;;;;5.93;1.40;;;;;;;31.45;26.18;100209.75;10188760;28;20157;-79
2022/08/22 14:51:00;;;;;;;3.05;1.85;;;;;;;31.62;25.95;100205.94;10204614;28;20063;-80
2022/08/22 14:56:09;;;;;;;4.70;1.55;;;;;;;32.56;25.32;100201.38;10191539;29;20351;-80
2022/08/22 15:01:16;;;;;;;3.05;1.50;;;;;;;32.33;25.25;100195.19;10203194;28;20134;-80
2022/08/22 15:06:33;;;;;;;6.15;1.50;;;;;;;31.09;25.83;100195.59;10194042;28;20246;-80
2022/08/22 15:11:38;;;;;;;3.30;1.55;;;;;;;30.43;26.24;100198.56;10182970;28;20040;-81
2022/08/22 15:16:52;;;;;;;3.42;1.60;;;;;;;29.97;27.16;100186.94;10204350;28;20523;-80
2022/08/22 15:22:10;;;;;;;2.63;1.50;;;;;;;29.77;27.59;100187.50;10201234;29;20051;-81
2022/08/22 15:27:20;;;;;;;2.28;1.30;;;;;;;29.66;27.95;100191.25;10192701;28;20637;-80
2022/08/22 15:32:28;;;;;;;4.05;1.85;;;;;;;29.19;27.55;100172.28;10212179;28;20192;-80
2022/08/22 15:37:33;;;;;;;3.20;1.58;;;;;;;28.91;28.27;100184.25;10211514;28;20697;-79
2022/08/22 15:42:41;;;;;;;4.88;1.60;;;;;;;28.66;28.43;100176.34;10219278;28;20099;-79
2022/08/22 15:47:49;;;;;;;2.38;1.50;;;;;;;28.58;28.75;100172.09;10215269;28;20047;-80
2022/08/22 15:53:10;;;;;;;4.25;1.50;;;;;;;28.35;29.50;100164.69;10193640;28;20066;-80
2022/08/22 15:58:23;;;;;;;4.93;1.52;;;;;;;28.07;28.91;100164.72;10212765;28;21131;-80
2022/08/22 16:03:29;;;;;;;2.63;1.40;;;;;;;27.76;29.57;100158.56;10204277;28;20055;-80
2022/08/22 16:08:48;;;;;;;3.80;1.40;;;;;;;27.58;29.77;100154.84;10204388;28;20106;-79
2022/08/22 16:14:19;;;;;;;3.42;1.50;;;;;;;27.35;30.88;100152.94;10192233;29;20051;-80
2022/08/22 16:19:23;;;;;;;;;;;;;;;27.13;32.98;100152.72;10210443;28;20083;-80
2022/08/22 16:24:55;;;;;;;7.00;1.80;;;;;;;26.90;32.99;100147.16;10201073;28;19927;-81
2022/08/22 16:30:06;;;;;;;5.13;1.63;;;;;;;26.78;33.03;100151.81;10208337;28;20120;-80
2022/08/22 16:35:09;;;;;;;1.73;1.30;;;;;;;26.58;33.64;100157.66;10193042;28;20063;-80
2022/08/22 16:40:19;;;;;;;2.45;1.60;;;;;;;26.24;33.85;100160.88;10209681;28;20084;-80
2022/08/22 16:45:34;;;;;;;2.42;1.38;;;;;;;25.63;33.92;100172.81;10201062;28;20156;-81
2022/08/22 16:50:39;;;;;;;4.28;1.58;;;;;;;25.38;37.37;100179.22;10204859;28;20071;-79
2022/08/22 16:56:17;;;;;;;6.15;1.90;;;;;;;24.03;46.15;100197.88;10195591;28;20067;-78
2022/08/22 17:01:33;;;;;;;6.22;1.73;;;;;;;22.78;47.86;100206.03;10200944;28;20149;-79
2022/08/22 17:07:02;;;;;;;2.88;1.65;;;;;;;23.07;44.64;100215.75;10215082;28;20050;-78
2022/08/22 17:12:16;;;;;;;2.45;1.50;;;;;;;23.37;40.05;100235.34;10209653;28;20059;-80
2022/08/22 17:17:34;;;;;;;4.82;1.40;;;;;;;24.13;39.04;100225.69;10211542;28;20084;-78
2022/08/22 17:22:46;;;;;;;5.32;1.70;;;;;;;24.35;40.07;100234.44;10214933;28;20432;-80
2022/08/22 17:28:00;;;;;;;4.35;1.70;;;;;;;23.93;38.92;100242.22;10198770;29;20056;-80
2022/08/22 17:33:14;;;;;;;2.80;1.80;;;;;;;23.86;39.17;100236.78;10228145;28;20056;-79
2022/08/22 17:38:34;;;;;;;3.63;1.80;;;;;;;24.20;39.66;100231.16;10207215;28;20055;-78
2022/08/22 17:43:49;;;;;;;3.35;1.90;;;;;;;24.24;40.06;100219.50;10214475;28;20055;-76
2022/08/22 17:48:59;;;;;;;5.47;1.60;;;;;;;24.22;40.42;100243.59;10205912;28;20067;-77
2022/08/22 17:54:13;;;;;;;3.15;2.10;;;;;;;24.03;40.19;100248.09;10163315;29;20158;-77
2022/08/22 17:59:20;;;;;;;5.63;2.08;;;;;;;24.07;41.09;100254.81;10191187;28;20077;-78
2022/08/22 18:04:32;;;;;;;2.70;2.00;;;;;;;23.99;41.67;100249.59;10205757;28;20052;-79
2022/08/22 18:09:39;;;;;;;4.53;2.33;;;;;;;23.83;42.37;100253.66;10202634;28;20148;-78
2022/08/22 18:14:49;;;;;;;4.50;1.70;;;;;;;23.72;43.34;100247.94;10178501;28;20055;-78
2022/08/22 18:20:04;;;;;;;5.22;2.25;;;;;;;23.59;45.79;100255.16;10162999;28;20059;-79
2022/08/22 18:25:26;;;;;;;4.30;2.65;;;;;;;23.29;47.96;100252.00;10188459;28;20150;-78
2022/08/22 18:30:34;;;;;;;4.05;2.10;;;;;;;23.06;47.17;100252.38;10162517;29;20752;-77
2022/08/22 18:35:45;;;;;;;4.82;2.70;;;;;;;23.05;46.61;100253.44;10134705;29;20844;-78
2022/08/22 18:41:06;;;;;;;4.85;2.50;;;;;;;22.82;46.77;100253.84;10156760;28;20063;-79
2022/08/22 18:46:32;;;;;;;4.32;2.42;;;;;;;22.75;47.23;100261.19;10159146;28;20052;-77
2022/08/22 18:51:37;;;;;;;6.53;2.78;;;;;;;22.76;47.46;100254.66;10144195;28;20059;-80
2022/08/22 18:56:49;;;;;;;5.68;2.60;;;;;;;22.76;47.11;100252.78;10168745;28;20111;-78
2022/08/22 19:02:04;;;;;;;3.30;2.10;;;;;;;22.72;48.09;100243.28;10178236;28;20505;-79
2022/08/22 19:07:33;;;;;;;5.93;2.28;;;;;;;22.59;49.65;100239.69;10178573;28;20047;-77
2022/08/22 19:12:53;;;;;;;3.83;2.33;;;;;;;22.54;49.11;100254.84;10174924;28;20079;-77
2022/08/22 19:18:25;;;;;;;3.38;2.53;;;;;;;22.61;49.00;100251.28;10187356;28;20051;-77
2022/08/22 19:23:48;;;;;;;5.60;2.23;;;;;;;22.63;49.15;100257.41;10191411;28;20054;-77
2022/08/22 19:28:52;;;;;;;5.57;2.63;;;;;;;22.72;47.33;100267.94;10183601;28;20740;-78
2022/08/22 19:34:24;;;;;;;5.15;2.92;;;;;;;22.85;47.01;100283.56;10171002;28;20535;-76
2022/08/22 19:39:45;;;;;;;;;;;;;;;22.70;47.42;100280.13;10161595;28;20134;-77
2022/08/22 19:45:02;;;;;;;6.93;2.75;;;;;;;22.32;48.10;100286.94;10185159;28;19962;-79
2022/08/22 19:50:11;;;;;;;4.03;2.20;;;;;;;22.11;49.08;100290.63;10186871;28;20062;-76
2022/08/22 19:55:21;;;;;;;4.03;2.13;;;;;;;21.82;49.45;100278.03;10174785;28;20048;-78
2022/08/22 20:00:45;;;;;;;9.30;2.42;;;;;;;21.81;49.20;100281.00;10183141;28;20138;-77
2022/08/22 20:05:59;;;;;;;3.85;2.30;;;;;;;21.89;49.01;100283.56;10184080;28;20150;-77
2022/08/22 20:11:22;;;;;;;3.13;2.30;;;;;;;21.97;48.91;100286.13;10165042;28;20058;-78
2022/08/22 20:16:59;;;;;;;5.75;2.40;;;;;;;22.11;48.73;100271.47;10181213;28;20513;-77
2022/08/22 20:22:05;;;;;;;5.95;2.33;;;;;;;22.23;48.68;100276.38;10193220;28;20047;-78
2022/08/22 20:27:14;;;;;;;3.10;2.22;;;;;;;22.28;48.87;100271.97;10173184;28;20079;-78
2022/08/22 20:32:21;;;;;;;5.10;3.05;;;;;;;22.24;49.03;100269.84;10192093;28;20509;-78
2022/08/22 20:37:31;;;;;;;3.75;2.33;;;;;;;22.15;48.51;100262.88;10181632;28;20102;-78
2022/08/22 20:42:58;;;;;;;6.22;2.30;;;;;;;22.05;48.18;100264.09;10184619;28;20519;-78
2022/08/22 20:48:07;;;;;;;5.53;2.50;;;;;;;21.96;48.25;100265.28;10193207;28;20050;-79
2022/08/22 20:53:20;;;;;;;3.15;2.30;;;;;;;21.90;48.12;100257.91;10194298;28;21640;-78
2022/08/22 20:58:26;;;;;;;7.80;2.50;;;;;;;21.85;48.45;100250.28;10193048;28;20048;-78
2022/08/22 21:03:39;;;;;;;4.05;2.28;;;;;;;21.71;48.96;100255.88;10233660;29;20066;-79
2022/08/22 21:08:44;;;;;;;3.78;2.70;;;;;;;21.67;49.42;100247.22;10235851;29;20094;-78
2022/08/22 21:13:49;;;;;;;5.65;2.70;;;;;;;21.64;49.00;100232.06;10231603;29;20126;-78
2022/08/22 21:18:53;;;;;;;3.45;2.58;;;;;;;21.61;48.87;100237.06;10243024;29;20047;-79
2022/08/22 21:24:00;;;;;;;4.50;3.00;;;;;;;21.57;48.74;100241.28;10240240;29;20521;-78
2022/08/22 21:29:06;;;;;;;7.07;4.13;;;;;;;21.57;48.45;100242.09;10222267;28;20039;-78
2022/08/22 21:34:13;;;;;;;5.93;3.20;;;;;;;21.37;48.13;100236.50;10236083;29;20062;-79
2022/08/22 21:39:21;;;;;;;5.60;2.75;;;;;;;21.54;47.97;100244.41;10229136;29;20089;-78
2022/08/22 21:44:27;;;;;;;4.47;2.72;;;;;;;21.49;47.86;100235.97;10234869;29;20115;-78
2022/08/22 21:49:30;;;;;;;5.60;2.70;;;;;;;21.29;47.70;100235.81;10236441;29;20075;-78
2022/08/22 21:54:40;;;;;;;5.10;2.78;;;;;;;21.36;47.16;100236.69;10228511;29;20405;-78
2022/08/22 21:59:45;;;;;;;6.35;2.83;;;;;;;21.45;46.91;100246.44;10233566;29;20106;-79
2022/08/22 22:05:02;;;;;;;4.70;2.72;;;;;;;21.52;47.04;100244.59;10238941;29;20115;-78
2022/08/22 22:10:13;;;;;;;7.28;2.95;;;;;;;21.45;47.34;100249.19;10238375;29;20043;-78
2022/08/22 22:15:19;;;;;;;4.45;2.50;;;;;;;21.28;47.58;100248.59;10233591;29;20043;-78
2022/08/22 22:20:24;;;;;;;5.85;2.50;;;;;;;21.19;47.73;100249.81;10237635;29;20075;-79
2022/08/22 22:25:29;;;;;;;4.45;3.30;;;;;;;21.15;47.98;100248.53;10236842;29;20048;-79
2022/08/22 22:30:49;;;;;;;5.47;3.10;;;;;;;21.04;48.21;100254.53;10227489;29;20049;-78
2022/08/22 22:35:54;;;;;;;5.93;2.88;;;;;;;21.12;47.70;100249.75;10229866;29;20051;-78
2022/08/22 22:40:58;;;;;;;4.55;2.88;;;;;;;21.12;47.71;100259.84;10234189;28;20067;-78
2022/08/22 22:46:02;;;;;;;5.15;3.20;;;;;;;20.95;47.91;100260.09;10239446;29;20055;-78
2022/08/22 22:51:08;;;;;;;5.57;2.97;;;;;;;20.82;48.03;100272.75;10231939;29;20051;-77
2022/08/22 22:56:15;;;;;;;4.60;3.30;;;;;;;20.79;48.13;100274.81;10226897;29;20059;-78
2022/08/22 23:01:21;;;;;;;6.95;3.72;;;;;;;20.81;47.85;100269.16;10229983;29;20045;-78
2022/08/22 23:06:27;;;;;;;6.45;3.38;;;;;;;20.95;47.52;100278.31;10231189;29;20058;-78
2022/08/22 23:11:31;;;;;;;4.95;3.40;;;;;;;20.92;47.24;100284.19;10228528;29;20094;-78
2022/08/22 23:16:34;;;;;;;6.35;3.40;;;;;;;20.89;47.05;100279.94;10226515;29;20047;-78
2022/08/22 23:21:40;;;;;;;5.85;3.70;;;;;;;20.95;46.95;100281.94;10229285;29;20046;-74
2022/08/22 23:26:44;;;;;;;7.10;3.28;;;;;;;20.73;47.48;100288.38;10230005;29;20051;-78
2022/08/22 23:31:51;;;;;;;5.93;3.63;;;;;;;20.95;46.87;100292.84;10226534;29;20040;-79
2022/08/22 23:36:56;;;;;;;7.53;3.00;;;;;;;20.88;47.18;100285.63;10241914;29;20113;-78
2022/08/22 23:42:01;;;;;;;5.97;3.25;;;;;;;20.86;47.32;100285.81;10230200;29;20039;-79
2022/08/22 23:47:06;;;;;;;7.20;3.40;;;;;;;20.92;46.97;100301.41;10227437;29;20513;-78
2022/08/22 23:52:12;;;;;;;3.35;3.05;;;;;;;20.74;47.15;100296.41;10237022;28;20090;-78
2022/08/22 23:57:16;;;;;;;3.47;3.17;;;;;;;20.70;47.72;100295.06;10239128;29;20051;-78
